LFRS/NTE METAR and TAF weather

Enter ICAO airport designator
Station Type Date Time Source
LFRS METAR 2020/09/22 23:30 UTC NOAA

LFRS 222330Z AUTO 20005KT 9999 FEW017/// SCT023/// BKN035/// ///CB 17/16 Q1009 TEMPO SHRA


Station Type Date Time Source
LFRS Decoded METAR 2020/09/22 23:30 UTC NOAA

Nantes, France (LFRS) 47-10N 001-36W 27M
Sep 22, 2020 - 07:30 PM EDT / 2020.09.22 2330 UTC
Wind: from the SSW (200 degrees) at 6 MPH (5 KT):0
Visibility: greater than 7 mile(s):0
Sky conditions: mostly cloudy
Weather: Cumulonimbus clouds observed
Temperature: 62 F (17 C)
Dew Point: 60 F (16 C)
Relative Humidity: 93%
Pressure (altimeter): 29.80 in. Hg (1009 hPa)
ob: LFRS 222330Z AUTO 20005KT 9999 FEW017/// SCT023/// BKN035/// ///CB 17/16 Q1009 TEMPO SHRA
cycle: 23

Station Type Date Time Source
LFRS TAF 2020/09/22 19:51 UTC NOAA

TAF
AMD LFRS 221946Z 2219/2324 27006KT 9999 BKN020
TEMPO 2221/2304 SHRA SCT030CB
BECMG 2304/2306 4000 SHRA BKN012 SCT016CB
BECMG 2308/2310 21010KT
TEMPO 2310/2319 2000 TSRA BKN005 BKN010CB
BECMG 2316/2318 27010KT

Example: see airport list